San Miguel, Argentina
Current Conditions -  °F | °C
As of 4:00 AM on Thursday 18 Dec 2014 (Local Time) from SARC Reporting Station
Overcast Overcast  
Wind Chill: 73°   Ceiling: 2000
Heat Index: 73°   Visibility: 6mi
Dew Point: 70°   Wind: 3mph
Humidity: 88%   Direction: 200°SSW
Pressure: 29.85"   Gusts: NA
Location:  28°S, 57.6°W
Report Text: SARC 180700Z 20003KT 9999 SCT007 BKN020 OVC100 23/21 Q1011
Loading
Personal Weather Stations






























Interactive Weather Map New forecast layout! Learn more

10-Day Weather Forecast

Advertisements
Track Severe Weather on mobile